5 juillet 2022

Temps Code Temps Temp. Vue Base cloud Vent METAR/SPECI
1:25 am
V
50 °F 6¼ mi+ - 210° 210° 4 kt METAR EHGG 042325Z AUTO 21004KT 9999 NCD 10/09 Q1020
12:55 am
V
50 °F 6¼ mi+ - 230° 230° 3 kt METAR EHGG 042255Z AUTO 23003KT 9999 NCD 10/09 Q1020
12:25 am
V
52 °F 6¼ mi+ - 230° 230° 4 kt METAR EHGG 042225Z AUTO 23004KT 9999 NCD 11/09 Q1020

4 juillet 2022

Temps Code Temps Temp. Vue Base cloud Vent METAR/SPECI
11:55 pm
V
52 °F 6¼ mi+ - 220° 220° 4 kt METAR EHGG 042155Z AUTO 22004KT 9999 NCD 11/10 Q1020
11:25 pm
V
54 °F 6¼ mi+ - 220° 220° 4 kt METAR EHGG 042125Z AUTO 22004KT 9999 NCD 12/10 Q1020
10:55 pm
V
55 °F 6¼ mi+ - 250° 250° 4 kt METAR EHGG 042055Z AUTO 25004KT 9999 NSC 13/11 Q1020
10:25 pm
V
57 °F 6¼ mi+ - 250° 250° 3 kt METAR EHGG 042025Z AUTO 25003KT 9999 FEW032 14/11 Q1020 NOSIG
9:55 pm
V
59 °F 6¼ mi+ - 260° 260° 4 kt METAR EHGG 041955Z AUTO 26004KT 240V300 9999 NSC 15/11 Q1019 NOSIG
9:25 pm
V
61 °F 6¼ mi+ - 270° 270° 5 kt METAR EHGG 041925Z AUTO 27005KT 240V310 9999 NSC 16/11 Q1019 NOSIG
8:55 pm
V
63 °F 6¼ mi+ - 280° 280° 5 kt METAR EHGG 041855Z AUTO 28005KT 240V300 9999 FEW040 17/10 Q1019 NOSIG
8:25 pm
V
64 °F 6¼ mi+ - 260° 260° 6 kt METAR EHGG 041825Z AUTO 26006KT 230V290 9999 NCD 18/09 Q1019 NOSIG
7:55 pm
V
66 °F 6¼ mi+ - 250° 250° 9 kt METAR EHGG 041755Z AUTO 25009KT 220V290 9999 NCD 19/10 Q1019 NOSIG
7:25 pm
V
66 °F 6¼ mi+ - 270° 270° 10 kt METAR EHGG 041725Z AUTO 27010KT 230V310 9999 FEW040 19/09 Q1019 NOSIG
6:55 pm
V
66 °F 6¼ mi+ 4.500 ft 260° 260° 12 kt METAR EHGG 041655Z AUTO 26012KT 230V330 9999 SCT040 BKN045 19/09 Q1019 NOSIG
6:25 pm
V
66 °F 6¼ mi+ - 270° 270° 13 kt METAR EHGG 041625Z AUTO 27013KT 230V310 9999 SCT043 19/09 Q1019 NOSIG
5:55 pm
V
68 °F 6¼ mi+ 4.100 ft 270° 270° 11 kt METAR EHGG 041555Z AUTO 27011KT 220V320 9999 BKN041 BKN045 20/09 Q1019 NOSIG
5:25 pm
V
68 °F 6¼ mi+ - 270° 270° 13 kt METAR EHGG 041525Z AUTO 27013KT 230V330 9999 SCT042 20/09 Q1019 NOSIG
4:55 pm
V
68 °F 6¼ mi+ 4.800 ft 260° 260° 12 kt METAR EHGG 041455Z AUTO 26012KT 220V290 9999 SCT042 BKN048 20/10 Q1019 NOSIG
4:25 pm
V
68 °F 6¼ mi+ - 270° 270° 11 kt METAR EHGG 041425Z AUTO 27011KT 230V320 9999 FEW040 SCT044 20/11 Q1019 NOSIG
3:55 pm
V
68 °F 6¼ mi+ 4.300 ft 280° 280° 10 kt METAR EHGG 041355Z AUTO 28010KT 240V320 9999 BKN043 OVC048 20/10 Q1019 NOSIG
3:25 pm
V
70 °F 6¼ mi+ 4.100 ft 260° 260° 12 kt METAR EHGG 041325Z AUTO 26012KT 220V310 9999 BKN041 BKN046 21/10 Q1018 NOSIG
2:55 pm
V
72 °F 6¼ mi+ - 260° 260° 14 kt METAR EHGG 041255Z AUTO 26014KT 210V300 9999 FEW042 22/11 Q1018 NOSIG
2:25 pm
V
70 °F 6¼ mi+ - 250° 250° 13 kt METAR EHGG 041225Z AUTO 25013KT 210V290 9999 FEW042 SCT049 21/11 Q1018 NOSIG
1:55 pm
V
70 °F 6¼ mi+ - 260° 260° 14 kt METAR EHGG 041155Z AUTO 26014KT 220V300 9999 SCT038 SCT044 21/10 Q1019 NOSIG
1:25 pm
V
68 °F 6¼ mi+ 3.500 ft 250° 250° 11 kt METAR EHGG 041125Z AUTO 25011KT 200V290 9999 OVC035 20/11 Q1019 NOSIG
12:55 pm
V
68 °F 6¼ mi+ 3.600 ft 250° 250° 10 kt METAR EHGG 041055Z AUTO 25010KT 210V300 9999 BKN036 OVC043 20/12 Q1019 NOSIG
12:25 pm
V
70 °F 6¼ mi+ - 250° 250° 8 kt METAR EHGG 041025Z AUTO 25008KT 220V310 9999 FEW039 SCT048 21/12 Q1019 NOSIG
11:55 am
V
66 °F 6¼ mi+ 4.400 ft 260° 260° 9 kt METAR EHGG 040955Z AUTO 26009KT 230V300 9999 FEW033 SCT038 BKN044 19/11 Q1019 NOSIG
11:25 am
V
66 °F 6¼ mi+ - 260° 260° 9 kt METAR EHGG 040925Z AUTO 26009KT 220V310 9999 FEW045 19/12 Q1019 NOSIG
10:55 am
M
64 °F 6¼ mi+ 2.500 ft 280° 280° 7 kt METAR EHGG 040855Z AUTO 28007KT 250V320 9999 SCT022 BKN025 OVC029 18/14 Q1019 NOSIG
10:25 am
V
66 °F 6¼ mi+ - 230° 230° 11 kt METAR EHGG 040825Z AUTO 23011KT 200V270 9999 FEW021 SCT025 19/14 Q1018 TEMPO 7000 -SHRA FEW020TCU
9:55 am
V
64 °F 6¼ mi+ - 230° 230° 9 kt METAR EHGG 040755Z AUTO 23009KT 190V270 9999 FEW016 SCT020 18/14 Q1019 TEMPO 7000 -SHRA FEW020TCU
9:25 am
V
64 °F 6¼ mi+ - 220° 220° 9 kt METAR EHGG 040725Z AUTO 22009KT 170V260 9999 FEW012 SCT015 18/15 Q1019 NOSIG
8:55 am
V
63 °F 6¼ mi+ - 210° 210° 8 kt METAR EHGG 040655Z AUTO 21008KT 180V240 9999 NSC 17/14 Q1019 NOSIG
8:25 am
V
61 °F 6¼ mi+ - 210° 210° 9 kt METAR EHGG 040625Z AUTO 21009KT 180V240 9999 NSC 16/14 Q1019 NOSIG
7:55 am
V
59 °F 6¼ mi+ - 200° 200° 6 kt METAR EHGG 040555Z AUTO 20006KT 170V230 9999 NCD 15/13 Q1019 NOSIG
7:25 am
V
57 °F 6¼ mi+ - 200° 200° 6 kt METAR EHGG 040525Z AUTO 20006KT 9999 NSC 14/13 Q1018 NOSIG
6:55 am
V
55 °F 6¼ mi+ - 210° 210° 6 kt METAR EHGG 040455Z AUTO 21006KT 9999 NSC 13/12 Q1018 NOSIG
6:25 am
V
54 °F 6¼ mi+ - 200° 200° 6 kt METAR EHGG 040425Z AUTO 20006KT 9999 NSC 12/11 Q1018 NOSIG
5:55 am
V
52 °F 5⅝ mi - 200° 200° 5 kt METAR EHGG 040355Z AUTO 20005KT 9000 NCD 11/11 Q1018
5:25 am
M
48 °F 4⅜ mi - 210° 210° 5 kt METAR EHGG 040325Z AUTO 21005KT 7000 NCD 09/09 Q1018
4:55 am
V
48 °F 6¼ mi+ - 200° 200° 4 kt METAR EHGG 040255Z AUTO 20004KT 9999 NCD 09/09 Q1018
4:25 am
V
48 °F 6¼ mi+ - 210° 210° 4 kt METAR EHGG 040225Z AUTO 21004KT 9999 NCD 09/09 Q1018
3:55 am
V
48 °F 6¼ mi+ - 210° 210° 4 kt METAR EHGG 040155Z AUTO 21004KT 9999 NCD 09/09 Q1018
3:25 am
V
48 °F 6¼ mi+ - 210° 210° 3 kt METAR EHGG 040125Z AUTO 21003KT 9999 NCD 09/09 Q1019
2:55 am
V
48 °F 6¼ mi+ - 230° 230° 3 kt METAR EHGG 040055Z AUTO 23003KT 9999 NCD 09/08 Q1019
2:25 am
V
48 °F 6¼ mi+ - 220° 220° 3 kt METAR EHGG 040025Z AUTO 22003KT 9999 NCD 09/09 Q1019
1:55 am
V
48 °F 6¼ mi+ - 210° 210° 4 kt METAR EHGG 032355Z AUTO 21004KT 9999 NCD 09/09 Q1019
1:25 am
V
48 °F 6¼ mi+ - 250° 250° 3 kt METAR EHGG 032325Z AUTO 25003KT 9999 NCD 09/09 Q1019
12:55 am
V
50 °F 6¼ mi+ - 210° 210° 2 kt METAR EHGG 032255Z AUTO 21002KT 9999 NCD 10/10 Q1019
12:25 am
V
52 °F 6¼ mi+ - 240° 240° 3 kt METAR EHGG 032225Z AUTO 24003KT 9999 NCD 11/10 Q1019

3 juillet 2022

Temps Code Temps Temp. Vue Base cloud Vent METAR/SPECI
11:55 pm
V
52 °F 6¼ mi+ - 230° 230° 3 kt METAR EHGG 032155Z AUTO 23003KT 9999 NCD 11/10 Q1019
11:25 pm
V
52 °F 6¼ mi+ - 260° 260° 3 kt METAR EHGG 032125Z AUTO 26003KT 9999 NCD 11/10 Q1019
10:55 pm
V
55 °F 6¼ mi+ - 300° 300° 3 kt METAR EHGG 032055Z AUTO 30003KT 9999 NCD 13/12 Q1019 NOSIG
10:25 pm
V
57 °F 6¼ mi+ - 270° 270° 4 kt METAR EHGG 032025Z AUTO 27004KT 9999 NSC 14/12 Q1019 NOSIG
9:55 pm
V
61 °F 6¼ mi+ - 300° 300° 2 kt METAR EHGG 031955Z AUTO 30002KT 9999 NCD 16/13 Q1018 NOSIG
9:25 pm
V
63 °F 6¼ mi+ - 310° 310° 5 kt METAR EHGG 031925Z AUTO 31005KT 280V340 9999 NSC 17/13 Q1018 NOSIG
8:55 pm
V
63 °F 6¼ mi+ - 310° 310° 5 kt METAR EHGG 031855Z AUTO 31005KT 280V340 9999 NSC 17/14 Q1018 NOSIG
8:25 pm
M
63 °F 6¼ mi+ 2.400 ft 320° 320° 5 kt METAR EHGG 031825Z AUTO 32005KT 280V020 9999 SCT021 BKN024 BKN029 17/14 Q1018 NOSIG
7:55 pm
V
63 °F 6¼ mi+ - 300° 300° 4 kt METAR EHGG 031755Z AUTO 30004KT 260V330 9999 NSC 17/14 Q1018 TEMPO 6000 SHRA FEW025CB
7:25 pm
V
63 °F 6¼ mi+ - 280° 280° 5 kt METAR EHGG 031725Z AUTO 28005KT 250V320 9999 FEW029 17/14 Q1018 TEMPO 6000 SHRA FEW025CB
6:55 pm
V
64 °F 6¼ mi+ - 310° 310° 7 kt METAR EHGG 031655Z AUTO 31007KT 250V340 9999 NSC 18/14 Q1018 TEMPO 27015G25KT 6000 SHRA FEW025CB
6:25 pm
V
64 °F 6¼ mi+ - 300° 300° 6 kt METAR EHGG 031625Z AUTO 30006KT 260V340 9999 -RA FEW021 SCT024 18/15 Q1018 TEMPO 27015G25KT 6000 SHRA FEW025CB
5:55 pm
V
64 °F 6¼ mi+ - 310° 310° 8 kt METAR EHGG 031555Z AUTO 31008KT 270V350 9999 FEW016 18/15 Q1018 TEMPO 27015G25KT 6000 SHRA FEW025CB
5:25 pm
V
66 °F 6¼ mi+ - 310° 310° 8 kt METAR EHGG 031525Z AUTO 31008KT 270V350 9999 FEW012 19/16 Q1017 TEMPO 27015G25KT 6000 SHRA FEW025CB
4:55 pm
V
63 °F 6¼ mi+ - 270° 270° 6 kt METAR EHGG 031455Z AUTO 27006KT 230V320 9999 FEW015CB 17/15 Q1017 RETS TEMPO 27015G25KT 6000 SHRA FEW025CB
4:25 pm
V
61 °F 5 mi - 240° 240° 14 kt METAR EHGG 031425Z AUTO 24014KT 8000 TSRA SCT015CB 16/15 Q1017 BECMG NSW
3:55 pm
V
68 °F 6¼ mi+ 4.500 ft 280° 280° 7 kt METAR EHGG 031355Z AUTO 28007KT 250V310 9999 FEW028CB SCT037 BKN045 20/13 Q1017 TEMPO 6000 SHRA FEW020CB
3:25 pm
V
70 °F 6¼ mi+ - 280° 280° 6 kt METAR EHGG 031325Z AUTO 28006KT 250V320 9999 NSC 21/13 Q1017 TEMPO 6000 SHRA FEW020CB
2:55 pm
V
70 °F 6¼ mi+ 3.300 ft 260° 260° 8 kt METAR EHGG 031255Z AUTO 26008KT 230V300 9999 BKN033 BKN044 21/14 Q1017 NOSIG
2:25 pm
V
72 °F 6¼ mi+ - 280° 280° 10 kt METAR EHGG 031225Z AUTO 28010KT 230V310 9999 FEW035 22/13 Q1017 NOSIG
1:55 pm
V
72 °F 6¼ mi+ - 240° 240° 10 kt METAR EHGG 031155Z AUTO 24010KT 200V270 9999 FEW041 SCT046 22/12 Q1017 NOSIG
1:25 pm
V
73 °F 6¼ mi+ 4.300 ft 260° 260° 10 kt METAR EHGG 031125Z AUTO 26010KT 220V300 9999 BKN043 BKN049 23/11 Q1017 NOSIG
12:55 pm
V
73 °F 6¼ mi+ - 230° 230° 10 kt METAR EHGG 031055Z AUTO 23010KT 180V280 9999 NCD 23/12 Q1017 NOSIG
12:25 pm
V
72 °F 6¼ mi+ 4.700 ft 250° 250° 11 kt METAR EHGG 031025Z AUTO 25011KT 210V290 9999 SCT042 BKN047 22/11 Q1017 NOSIG
11:55 am
V
73 °F 6¼ mi+ - 220° 220° 9 kt METAR EHGG 030955Z AUTO 22009KT 190V260 9999 FEW046 23/12 Q1017 NOSIG
11:25 am
V
70 °F 6¼ mi+ - 230° 230° 8 kt METAR EHGG 030925Z AUTO 23008KT 190V260 9999 NSC 21/11 Q1017 NOSIG
10:55 am
V
70 °F 6¼ mi+ - 250° 250° 6 kt METAR EHGG 030855Z AUTO 25006KT 190V310 9999 NCD 21/13 Q1017 NOSIG
10:25 am
V
68 °F 6¼ mi+ - 250° 250° 6 kt METAR EHGG 030825Z AUTO 25006KT 220V280 9999 NSC 20/13 Q1017 NOSIG
9:55 am
V
68 °F 6¼ mi+ - 260° 260° 8 kt METAR EHGG 030755Z AUTO 26008KT 210V300 9999 NSC 20/12 Q1017 NOSIG
9:25 am
V
66 °F 6¼ mi+ - 250° 250° 5 kt METAR EHGG 030725Z AUTO 25005KT 230V320 9999 NSC 19/14 Q1017 NOSIG
8:55 am
V
66 °F 6¼ mi+ - 250° 250° 6 kt METAR EHGG 030655Z AUTO 25006KT 210V290 9999 NSC 19/13 Q1016 NOSIG
8:25 am
V
66 °F 6¼ mi+ - 260° 260° 6 kt METAR EHGG 030625Z AUTO 26006KT 230V290 9999 NSC 19/14 Q1016 NOSIG
7:55 am
V
63 °F 6¼ mi+ - 230° 230° 3 kt METAR EHGG 030555Z AUTO 23003KT 9999 NSC 17/14 Q1016 NOSIG
7:25 am
V
59 °F 6¼ mi+ - Var Var 1 kt METAR EHGG 030525Z AUTO VRB01KT 9999 NCD 15/14 Q1016 NOSIG
6:55 am
V
55 °F 6¼ mi+ - 190° 190° 2 kt METAR EHGG 030455Z AUTO 19002KT 9999 NSC 13/12 Q1016 NOSIG
6:25 am
V
54 °F 6¼ mi+ - Var Var 2 kt METAR EHGG 030425Z AUTO VRB02KT 9999 NSC 12/11 Q1016 NOSIG
5:55 am
V
54 °F 6¼ mi+ - Var Var 1 kt METAR EHGG 030355Z AUTO VRB01KT 9999 NSC 12/12 Q1016 NOSIG
5:25 am
V
54 °F 6¼ mi+ - Var Var 1 kt METAR EHGG 030325Z AUTO VRB01KT 9999 NSC 12/12 Q1016
4:55 am
V
55 °F 6¼ mi+ - 280° 280° 4 kt METAR EHGG 030255Z AUTO 28004KT 250V310 9999 NCD 13/12 Q1016
4:25 am
V
54 °F 6¼ mi+ - 160° 160° 1 kt METAR EHGG 030225Z AUTO 16001KT 9999 NCD 12/11 Q1016
3:55 am
V
55 °F 6¼ mi+ - Var Var 1 kt METAR EHGG 030155Z AUTO VRB01KT 9999 NSC 13/13 Q1016
3:25 am
V
57 °F 6¼ mi+ - Var Var 1 kt METAR EHGG 030125Z AUTO VRB01KT 9999 NSC 14/13 Q1016
2:55 am
V
57 °F 6¼ mi+ - 100° 100° 4 kt METAR EHGG 030055Z AUTO 10004KT 9999 NSC 14/13 Q1017
2:25 am
V
59 °F 6¼ mi+ - 100° 100° 3 kt METAR EHGG 030025Z AUTO 10003KT 9999 NSC 15/13 Q1017
1:55 am
V
59 °F 6¼ mi+ - 060° 060° 1 kt METAR EHGG 022355Z AUTO 06001KT 9999 NSC 15/14 Q1017
1:25 am
V
61 °F 6¼ mi+ - 080° 080° 3 kt METAR EHGG 022325Z AUTO 08003KT 9999 NSC 16/14 Q1017
12:55 am
V
63 °F 6¼ mi+ - 060° 060° 2 kt METAR EHGG 022255Z AUTO 06002KT 9999 NSC 17/14 Q1017
12:25 am
V
63 °F 6¼ mi+ - 060° 060° 2 kt METAR EHGG 022225Z AUTO 06002KT 9999 NSC 17/14 Q1017

2 juillet 2022

Temps Code Temps Temp. Vue Base cloud Vent METAR/SPECI
11:55 pm
V
63 °F 6¼ mi+ - 070° 070° 3 kt METAR EHGG 022155Z AUTO 07003KT 9999 FEW015CB 17/14 Q1018
11:25 pm
V
63 °F 6¼ mi+ - 070° 070° 2 kt METAR EHGG 022125Z AUTO 07002KT 9999 FEW015CB 17/14 Q1018
10:55 pm
V
64 °F 6¼ mi+ - 110° 110° 1 kt METAR EHGG 022055Z AUTO 11001KT 9999 -RA NSC 18/14 Q1018 NOSIG
10:25 pm
V
66 °F 6¼ mi+ - 100° 100° 4 kt METAR EHGG 022025Z AUTO 10004KT 9999 NSC 19/13 Q1018 REDZ NOSIG
9:55 pm
V
66 °F 6¼ mi+ - 100° 100° 3 kt METAR EHGG 021955Z AUTO 10003KT 9999 NSC 19/14 Q1018 NOSIG
9:25 pm
V
68 °F 6¼ mi+ - 100° 100° 3 kt METAR EHGG 021925Z AUTO 10003KT 9999 NSC 20/13 Q1018 NOSIG
8:55 pm
V
68 °F 6¼ mi+ - Var Var 2 kt METAR EHGG 021855Z AUTO VRB02KT 9999 NSC 20/12 Q1018 NOSIG
8:25 pm
V
70 °F 6¼ mi+ - Var 000° 0 kt METAR EHGG 021825Z AUTO 00000KT 9999 NSC 21/12 Q1018 NOSIG
7:55 pm
V
70 °F 6¼ mi+ - 300° 300° 2 kt METAR EHGG 021755Z AUTO 30002KT 9999 NSC 21/11 Q1018 NOSIG
7:25 pm
V
72 °F 6¼ mi+ - Var Var 1 kt METAR EHGG 021725Z AUTO VRB01KT 9999 NSC 22/10 Q1018 NOSIG
6:55 pm
V
72 °F 6¼ mi+ - 200° 200° 3 kt METAR EHGG 021655Z AUTO 20003KT 160V240 9999 NSC 22/10 Q1019 NOSIG
6:25 pm
V
72 °F 6¼ mi+ - 220° 220° 4 kt METAR EHGG 021625Z AUTO 22004KT 180V250 9999 NSC 22/10 Q1019 NOSIG
5:55 pm
V
72 °F 6¼ mi+ - 220° 220° 4 kt METAR EHGG 021555Z AUTO 22004KT 180V280 9999 NSC 22/10 Q1019 NOSIG
5:25 pm
V
72 °F 6¼ mi+ - 210° 210° 6 kt METAR EHGG 021525Z AUTO 21006KT 170V250 9999 NSC 22/10 Q1019 NOSIG
4:55 pm
V
72 °F 6¼ mi+ - 200° 200° 6 kt METAR EHGG 021455Z AUTO 20006KT 170V240 9999 NSC 22/11 Q1020 NOSIG
Données plus anciennes

Télécharge notre application

Un accès facile à toute la météo aéronautique sur ton téléphone portable et ta tablette.
Avec de nombreuses fonctionnalités non disponibles sur le site Web, comme la prise en charge hors ligne et une liste personnelle d'aéroports.

Nous et des tiers suivons ton comportement sur Internet sur notre site Web à l'aide de cookies. Si tu continues, nous supposons que tu acceptes notre politique en matière de cookies. Apprendre plus